Notice: Undefined index: language in /storage/ssd5/933/2892933/public_html/vam/index.php on line 25
JetGo Aerolínea Virtual

www.000webhost.com
 METAR AND TAF INFORMATION
METAR FOR SKAR
ADDS - METARS form results

(0055 UTC 20 June 2019)
Data provider http://aviationweather.gov/metar/data/
 
METAR text: SKAR 200000Z 00000KT 9999 SCT022 BKN090 23/19 A2996
Conditions at: SKAR (ARMENIA/EL EDEN , CO) observed 0000 UTC 20 June 2019
Temperature: 23.0°C (73°F)
Dewpoint: 19.0°C (66°F) [RH = 78%]
Pressure (altimeter): 29.96 inches Hg (1014.6 mb)
Winds: calm
Visibility: 6 or more miles (10+ km)
Ceiling: 9000 feet AGL
Clouds: scattered clouds at 2200 feet AGL
broken clouds at 9000 feet AGL
Weather: no significant weather observed at this time

 AIRPORT MAP

 RUNWAY INFORMATION
Runway 02 Runway length 7045 ft Runway width 118 ft
Runway elevation 3968 ft Runway displaced threshold 0 ft Runway heading 13
Runway 20 Runway length 7045 ft Runway width 118 ft
Runway elevation 3979 ft Runway displaced threshold 0 ft Runway heading 193

 AIRPORT FREQUENCIES
Type APP Name PEREIRA AP Frequency 119.9 MHZ
Type RDO Name ARMENIA RD Frequency 348.8 MHZ
Type TWR Name TWR Frequency 118.5 MHZ

 AIRPORT NEAR NAVIGATION AIDS
Type NDB Name Armenia Frequency 315 KHZ



Powered by VAM for JetGo Virtual Airlines